sensor_id;sensor_type;location;lat;lon;timestamp;temperature;humidity
1956;DHT22;978;48.314;11.562;2022-07-12T00:00:04;22.20;83.40
1956;DHT22;978;48.314;11.562;2022-07-12T00:02:32;22.20;83.40
1956;DHT22;978;48.314;11.562;2022-07-12T00:04:58;22.20;83.40
1956;DHT22;978;48.314;11.562;2022-07-12T00:07:26;22.20;83.40
1956;DHT22;978;48.314;11.562;2022-07-12T00:09:53;22.20;83.40
1956;DHT22;978;48.314;11.562;2022-07-12T00:12:20;22.20;83.40
1956;DHT22;978;48.314;11.562;2022-07-12T00:14:47;22.20;83.40
1956;DHT22;978;48.314;11.562;2022-07-12T00:17:14;22.20;83.40
1956;DHT22;978;48.314;11.562;2022-07-12T00:19:41;22.20;83.40
1956;DHT22;978;48.314;11.562;2022-07-12T00:22:08;22.20;83.40
1956;DHT22;978;48.314;11.562;2022-07-12T00:24:36;22.20;83.40
1956;DHT22;978;48.314;11.562;2022-07-12T00:27:03;22.20;83.40
1956;DHT22;978;48.314;11.562;2022-07-12T00:29:30;22.20;83.50
1956;DHT22;978;48.314;11.562;2022-07-12T00:31:57;22.20;83.40
1956;DHT22;978;48.314;11.562;2022-07-12T00:34:24;22.20;83.40
1956;DHT22;978;48.314;11.562;2022-07-12T00:36:50;22.20;83.30
1956;DHT22;978;48.314;11.562;2022-07-12T00:39:17;22.20;83.40
1956;DHT22;978;48.314;11.562;2022-07-12T00:41:48;22.20;83.30
1956;DHT22;978;48.314;11.562;2022-07-12T00:44:15;22.20;83.30
1956;DHT22;978;48.314;11.562;2022-07-12T00:46:43;22.20;83.30
1956;DHT22;978;48.314;11.562;2022-07-12T00:49:10;22.20;83.30
1956;DHT22;978;48.314;11.562;2022-07-12T00:51:41;22.20;83.30
1956;DHT22;978;48.314;11.562;2022-07-12T00:54:07;22.20;83.30
1956;DHT22;978;48.314;11.562;2022-07-12T00:56:35;22.20;83.30
1956;DHT22;978;48.314;11.562;2022-07-12T00:59:03;22.20;83.30
1956;DHT22;978;48.314;11.562;2022-07-12T01:01:30;22.20;83.30
1956;DHT22;978;48.314;11.562;2022-07-12T01:03:57;22.20;83.20
1956;DHT22;978;48.314;11.562;2022-07-12T01:06:24;22.20;83.30
1956;DHT22;978;48.314;11.562;2022-07-12T01:08:52;22.20;83.30
1956;DHT22;978;48.314;11.562;2022-07-12T01:11:19;22.20;83.20
1956;DHT22;978;48.314;11.562;2022-07-12T01:13:46;22.20;83.20
1956;DHT22;978;48.314;11.562;2022-07-12T01:16:15;22.20;83.20
1956;DHT22;978;48.314;11.562;2022-07-12T01:18:43;22.20;83.20
1956;DHT22;978;48.314;11.562;2022-07-12T01:21:15;22.20;83.20
1956;DHT22;978;48.314;11.562;2022-07-12T01:23:46;22.20;83.20
1956;DHT22;978;48.314;11.562;2022-07-12T01:26:13;22.20;83.30
1956;DHT22;978;48.314;11.562;2022-07-12T01:28:40;22.20;83.20
1956;DHT22;978;48.314;11.562;2022-07-12T01:31:07;22.20;83.20
1956;DHT22;978;48.314;11.562;2022-07-12T01:33:34;22.20;83.20
1956;DHT22;978;48.314;11.562;2022-07-12T01:36:00;22.20;83.20
1956;DHT22;978;48.314;11.562;2022-07-12T01:38:27;22.20;83.20
1956;DHT22;978;48.314;11.562;2022-07-12T01:40:56;22.20;83.20
1956;DHT22;978;48.314;11.562;2022-07-12T01:43:22;22.20;83.20
1956;DHT22;978;48.314;11.562;2022-07-12T01:45:49;22.20;83.20
1956;DHT22;978;48.314;11.562;2022-07-12T01:48:16;22.20;83.20
1956;DHT22;978;48.314;11.562;2022-07-12T01:50:44;22.20;83.20
1956;DHT22;978;48.314;11.562;2022-07-12T01:53:11;22.20;83.20
1956;DHT22;978;48.314;11.562;2022-07-12T01:55:39;22.20;83.20
1956;DHT22;978;48.314;11.562;2022-07-12T01:58:08;22.20;83.10
1956;DHT22;978;48.314;11.562;2022-07-12T02:00:35;22.20;83.10
1956;DHT22;978;48.314;11.562;2022-07-12T02:03:02;22.20;83.20
1956;DHT22;978;48.314;11.562;2022-07-12T02:05:29;22.20;83.20
1956;DHT22;978;48.314;11.562;2022-07-12T02:07:56;22.20;83.20
1956;DHT22;978;48.314;11.562;2022-07-12T02:10:23;22.20;83.20
1956;DHT22;978;48.314;11.562;2022-07-12T02:12:50;22.20;83.20
1956;DHT22;978;48.314;11.562;2022-07-12T02:15:18;22.20;83.20
1956;DHT22;978;48.314;11.562;2022-07-12T02:17:45;22.20;83.10
1956;DHT22;978;48.314;11.562;2022-07-12T02:20:13;22.20;83.20
1956;DHT22;978;48.314;11.562;2022-07-12T02:22:39;22.20;83.10
1956;DHT22;978;48.314;11.562;2022-07-12T02:25:07;22.20;83.10
1956;DHT22;978;48.314;11.562;2022-07-12T02:27:33;22.20;83.20
1956;DHT22;978;48.314;11.562;2022-07-12T02:30:00;22.20;83.10
1956;DHT22;978;48.314;11.562;2022-07-12T02:32:29;22.20;83.10
1956;DHT22;978;48.314;11.562;2022-07-12T02:34:56;22.20;83.10
1956;DHT22;978;48.314;11.562;2022-07-12T02:37:22;22.20;83.10
1956;DHT22;978;48.314;11.562;2022-07-12T02:39:49;22.20;83.10
1956;DHT22;978;48.314;11.562;2022-07-12T02:42:16;22.20;83.10
1956;DHT22;978;48.314;11.562;2022-07-12T02:44:42;22.20;83.10
1956;DHT22;978;48.314;11.562;2022-07-12T02:47:09;22.20;83.10
1956;DHT22;978;48.314;11.562;2022-07-12T02:49:37;22.20;83.10
1956;DHT22;978;48.314;11.562;2022-07-12T02:52:05;22.20;83.10
1956;DHT22;978;48.314;11.562;2022-07-12T02:54:31;22.20;83.00
1956;DHT22;978;48.314;11.562;2022-07-12T02:56:58;22.10;83.00
1956;DHT22;978;48.314;11.562;2022-07-12T02:59:25;22.20;83.00
1956;DHT22;978;48.314;11.562;2022-07-12T03:01:52;22.20;83.00
1956;DHT22;978;48.314;11.562;2022-07-12T03:04:19;22.20;83.00
1956;DHT22;978;48.314;11.562;2022-07-12T03:06:47;22.20;83.00
1956;DHT22;978;48.314;11.562;2022-07-12T03:09:14;22.20;83.00
1956;DHT22;978;48.314;11.562;2022-07-12T03:11:40;22.20;83.60
1956;DHT22;978;48.314;11.562;2022-07-12T03:14:07;22.10;82.90
1956;DHT22;978;48.314;11.562;2022-07-12T03:16:34;22.10;82.90
1956;DHT22;978;48.314;11.562;2022-07-12T03:19:01;22.20;82.90
1956;DHT22;978;48.314;11.562;2022-07-12T03:21:28;22.20;82.90
1956;DHT22;978;48.314;11.562;2022-07-12T03:23:57;22.20;82.90
1956;DHT22;978;48.314;11.562;2022-07-12T03:26:24;22.20;82.90
1956;DHT22;978;48.314;11.562;2022-07-12T03:28:51;22.20;82.90
1956;DHT22;978;48.314;11.562;2022-07-12T03:31:18;22.20;83.40
1956;DHT22;978;48.314;11.562;2022-07-12T03:33:45;22.20;82.80
1956;DHT22;978;48.314;11.562;2022-07-12T03:36:11;22.10;82.80
1956;DHT22;978;48.314;11.562;2022-07-12T03:38:39;22.10;82.80
1956;DHT22;978;48.314;11.562;2022-07-12T03:41:07;22.10;82.80
1956;DHT22;978;48.314;11.562;2022-07-12T03:43:33;22.10;82.80
1956;DHT22;978;48.314;11.562;2022-07-12T03:46:00;22.20;82.80
1956;DHT22;978;48.314;11.562;2022-07-12T03:48:27;22.10;82.70
1956;DHT22;978;48.314;11.562;2022-07-12T03:50:54;22.20;82.80
1956;DHT22;978;48.314;11.562;2022-07-12T03:53:21;22.10;82.70
1956;DHT22;978;48.314;11.562;2022-07-12T03:55:48;22.10;82.70
1956;DHT22;978;48.314;11.562;2022-07-12T03:58:16;22.10;82.70
1956;DHT22;978;48.314;11.562;2022-07-12T04:00:43;22.20;82.70
1956;DHT22;978;48.314;11.562;2022-07-12T04:03:10;22.10;82.70
1956;DHT22;978;48.314;11.562;2022-07-12T04:05:37;22.10;82.70
1956;DHT22;978;48.314;11.562;2022-07-12T04:08:04;22.20;82.70
1956;DHT22;978;48.314;11.562;2022-07-12T04:10:31;22.10;82.60
1956;DHT22;978;48.314;11.562;2022-07-12T04:12:58;22.10;82.60
1956;DHT22;978;48.314;11.562;2022-07-12T04:15:26;22.10;82.60
1956;DHT22;978;48.314;11.562;2022-07-12T04:17:53;22.10;82.60
1956;DHT22;978;48.314;11.562;2022-07-12T04:20:20;22.20;82.70
1956;DHT22;978;48.314;11.562;2022-07-12T04:22:47;22.20;82.60
1956;DHT22;978;48.314;11.562;2022-07-12T04:25:14;22.10;82.50
1956;DHT22;978;48.314;11.562;2022-07-12T04:27:41;22.10;82.50
1956;DHT22;978;48.314;11.562;2022-07-12T04:30:09;22.20;82.60
1956;DHT22;978;48.314;11.562;2022-07-12T04:32:37;22.10;82.50
1956;DHT22;978;48.314;11.562;2022-07-12T04:35:05;22.20;82.60
1956;DHT22;978;48.314;11.562;2022-07-12T04:37:31;22.10;82.50
1956;DHT22;978;48.314;11.562;2022-07-12T04:39:58;22.10;82.50
1956;DHT22;978;48.314;11.562;2022-07-12T04:42:25;22.20;82.50
1956;DHT22;978;48.314;11.562;2022-07-12T04:44:53;22.10;82.40
1956;DHT22;978;48.314;11.562;2022-07-12T04:47:19;22.20;82.50
1956;DHT22;978;48.314;11.562;2022-07-12T04:49:48;22.20;82.50
1956;DHT22;978;48.314;11.562;2022-07-12T04:52:14;22.10;82.40
1956;DHT22;978;48.314;11.562;2022-07-12T04:54:41;22.20;82.50
1956;DHT22;978;48.314;11.562;2022-07-12T04:57:08;22.10;82.50
1956;DHT22;978;48.314;11.562;2022-07-12T04:59:35;22.20;82.50
1956;DHT22;978;48.314;11.562;2022-07-12T05:02:02;22.20;82.50
1956;DHT22;978;48.314;11.562;2022-07-12T05:04:31;22.20;82.50
1956;DHT22;978;48.314;11.562;2022-07-12T05:07:00;22.20;82.50
1956;DHT22;978;48.314;11.562;2022-07-12T05:09:26;22.20;82.50
1956;DHT22;978;48.314;11.562;2022-07-12T05:11:53;22.20;82.50
1956;DHT22;978;48.314;11.562;2022-07-12T05:14:20;22.20;82.50
1956;DHT22;978;48.314;11.562;2022-07-12T05:16:47;22.20;82.50
1956;DHT22;978;48.314;11.562;2022-07-12T05:19:13;22.10;82.50
1956;DHT22;978;48.314;11.562;2022-07-12T05:21:41;22.20;82.50
1956;DHT22;978;48.314;11.562;2022-07-12T05:24:09;22.20;82.50
1956;DHT22;978;48.314;11.562;2022-07-12T05:26:36;22.20;82.50
1956;DHT22;978;48.314;11.562;2022-07-12T05:29:03;22.10;82.50
1956;DHT22;978;48.314;11.562;2022-07-12T05:31:30;22.10;82.50
1956;DHT22;978;48.314;11.562;2022-07-12T05:33:56;22.20;82.60
1956;DHT22;978;48.314;11.562;2022-07-12T05:36:23;22.10;82.50
1956;DHT22;978;48.314;11.562;2022-07-12T05:38:50;22.20;82.60
1956;DHT22;978;48.314;11.562;2022-07-12T05:41:18;22.20;82.60
1956;DHT22;978;48.314;11.562;2022-07-12T05:43:45;22.10;82.50
1956;DHT22;978;48.314;11.562;2022-07-12T05:46:12;22.20;82.60
1956;DHT22;978;48.314;11.562;2022-07-12T05:48:39;22.10;82.60
1956;DHT22;978;48.314;11.562;2022-07-12T05:51:05;22.10;82.60
1956;DHT22;978;48.314;11.562;2022-07-12T05:53:50;22.20;82.60
1956;DHT22;978;48.314;11.562;2022-07-12T05:56:18;22.20;82.70
1956;DHT22;978;48.314;11.562;2022-07-12T05:58:45;22.20;82.70
1956;DHT22;978;48.314;11.562;2022-07-12T06:01:12;22.20;82.70
1956;DHT22;978;48.314;11.562;2022-07-12T06:03:39;22.10;82.60
1956;DHT22;978;48.314;11.562;2022-07-12T06:06:06;22.20;82.70
1956;DHT22;978;48.314;11.562;2022-07-12T06:08:33;22.20;82.70
1956;DHT22;978;48.314;11.562;2022-07-12T06:10:59;22.20;82.70
1956;DHT22;978;48.314;11.562;2022-07-12T06:13:27;22.20;82.70
1956;DHT22;978;48.314;11.562;2022-07-12T06:15:55;22.20;82.70
1956;DHT22;978;48.314;11.562;2022-07-12T06:18:22;22.20;82.70
1956;DHT22;978;48.314;11.562;2022-07-12T06:20:48;22.20;82.70
1956;DHT22;978;48.314;11.562;2022-07-12T06:23:15;22.20;82.80
1956;DHT22;978;48.314;11.562;2022-07-12T06:25:42;22.20;82.80
1956;DHT22;978;48.314;11.562;2022-07-12T06:28:09;22.20;82.80
1956;DHT22;978;48.314;11.562;2022-07-12T06:30:37;22.20;82.80
1956;DHT22;978;48.314;11.562;2022-07-12T06:33:04;22.20;82.80
1956;DHT22;978;48.314;11.562;2022-07-12T06:35:31;22.20;82.80
1956;DHT22;978;48.314;11.562;2022-07-12T06:37:59;22.20;82.80
1956;DHT22;978;48.314;11.562;2022-07-12T06:40:26;22.20;82.90
1956;DHT22;978;48.314;11.562;2022-07-12T06:42:53;22.20;82.80
1956;DHT22;978;48.314;11.562;2022-07-12T06:45:19;22.20;82.90
1956;DHT22;978;48.314;11.562;2022-07-12T06:47:47;22.20;82.90
1956;DHT22;978;48.314;11.562;2022-07-12T06:50:14;22.20;82.90
1956;DHT22;978;48.314;11.562;2022-07-12T06:52:41;22.20;82.90
1956;DHT22;978;48.314;11.562;2022-07-12T06:55:08;22.10;82.80
1956;DHT22;978;48.314;11.562;2022-07-12T06:57:35;22.20;82.90
1956;DHT22;978;48.314;11.562;2022-07-12T07:00:03;22.20;82.90
1956;DHT22;978;48.314;11.562;2022-07-12T07:02:30;22.10;82.80
1956;DHT22;978;48.314;11.562;2022-07-12T07:04:59;22.20;83.00
1956;DHT22;978;48.314;11.562;2022-07-12T07:07:25;22.20;82.90
1956;DHT22;978;48.314;11.562;2022-07-12T07:09:52;22.20;82.90
1956;DHT22;978;48.314;11.562;2022-07-12T07:12:19;22.20;83.20
1956;DHT22;978;48.314;11.562;2022-07-12T07:14:46;22.20;83.00
1956;DHT22;978;48.314;11.562;2022-07-12T07:17:14;22.10;82.80
1956;DHT22;978;48.314;11.562;2022-07-12T07:19:41;22.10;82.70
1956;DHT22;978;48.314;11.562;2022-07-12T07:22:10;22.10;82.60
1956;DHT22;978;48.314;11.562;2022-07-12T07:24:37;22.10;82.30
1956;DHT22;978;48.314;11.562;2022-07-12T07:27:04;22.10;82.20
1956;DHT22;978;48.314;11.562;2022-07-12T07:29:35;22.10;82.00
1956;DHT22;978;48.314;11.562;2022-07-12T07:32:19;22.10;82.00
1956;DHT22;978;48.314;11.562;2022-07-12T07:34:46;22.10;82.20
1956;DHT22;978;48.314;11.562;2022-07-12T07:37:14;22.10;82.40
1956;DHT22;978;48.314;11.562;2022-07-12T07:39:41;22.20;82.60
1956;DHT22;978;48.314;11.562;2022-07-12T07:42:08;22.10;82.50
1956;DHT22;978;48.314;11.562;2022-07-12T07:44:35;22.20;82.60
1956;DHT22;978;48.314;11.562;2022-07-12T07:47:03;22.10;82.50
1956;DHT22;978;48.314;11.562;2022-07-12T07:49:30;22.10;82.50
1956;DHT22;978;48.314;11.562;2022-07-12T07:51:57;22.20;82.50
1956;DHT22;978;48.314;11.562;2022-07-12T07:54:25;22.20;82.50
1956;DHT22;978;48.314;11.562;2022-07-12T07:56:52;22.20;82.50
1956;DHT22;978;48.314;11.562;2022-07-12T07:59:19;22.10;82.50
1956;DHT22;978;48.314;11.562;2022-07-12T08:01:46;22.20;82.50
1956;DHT22;978;48.314;11.562;2022-07-12T08:04:18;22.20;82.50
1956;DHT22;978;48.314;11.562;2022-07-12T08:06:45;22.20;82.50
1956;DHT22;978;48.314;11.562;2022-07-12T08:09:12;22.20;82.50
1956;DHT22;978;48.314;11.562;2022-07-12T08:11:41;22.10;82.40
1956;DHT22;978;48.314;11.562;2022-07-12T08:14:09;22.20;82.50
1956;DHT22;978;48.314;11.562;2022-07-12T08:16:36;22.20;82.50
1956;DHT22;978;48.314;11.562;2022-07-12T08:19:04;22.10;82.40
1956;DHT22;978;48.314;11.562;2022-07-12T08:21:31;22.20;82.50
1956;DHT22;978;48.314;11.562;2022-07-12T08:23:58;22.10;82.40
1956;DHT22;978;48.314;11.562;2022-07-12T08:26:25;22.20;82.50
1956;DHT22;978;48.314;11.562;2022-07-12T08:28:53;22.20;82.50
1956;DHT22;978;48.314;11.562;2022-07-12T08:31:20;22.20;82.50
1956;DHT22;978;48.314;11.562;2022-07-12T08:33:47;22.10;82.40
1956;DHT22;978;48.314;11.562;2022-07-12T08:36:14;22.20;82.50
1956;DHT22;978;48.314;11.562;2022-07-12T08:38:41;22.10;82.40
1956;DHT22;978;48.314;11.562;2022-07-12T08:41:11;22.20;82.50
1956;DHT22;978;48.314;11.562;2022-07-12T08:43:39;22.20;82.50
1956;DHT22;978;48.314;11.562;2022-07-12T08:46:08;22.20;82.50
1956;DHT22;978;48.314;11.562;2022-07-12T08:48:36;22.20;82.50
1956;DHT22;978;48.314;11.562;2022-07-12T08:51:04;22.10;82.40
1956;DHT22;978;48.314;11.562;2022-07-12T08:53:32;22.20;82.50
1956;DHT22;978;48.314;11.562;2022-07-12T08:55:59;22.10;82.40
1956;DHT22;978;48.314;11.562;2022-07-12T08:58:26;22.20;82.50
1956;DHT22;978;48.314;11.562;2022-07-12T09:00:53;22.20;82.40
1956;DHT22;978;48.314;11.562;2022-07-12T09:03:21;22.10;82.40
1956;DHT22;978;48.314;11.562;2022-07-12T09:05:50;22.20;82.40
1956;DHT22;978;48.314;11.562;2022-07-12T09:08:18;22.10;82.30
1956;DHT22;978;48.314;11.562;2022-07-12T09:10:53;22.10;82.30
1956;DHT22;978;48.314;11.562;2022-07-12T09:13:21;22.20;82.30
1956;DHT22;978;48.314;11.562;2022-07-12T09:16:14;22.10;82.20
1956;DHT22;978;48.314;11.562;2022-07-12T09:18:42;22.20;82.20
1956;DHT22;978;48.314;11.562;2022-07-12T09:21:09;22.10;82.10
1956;DHT22;978;48.314;11.562;2022-07-12T09:23:35;22.20;82.20
1956;DHT22;978;48.314;11.562;2022-07-12T09:26:07;22.10;82.00
1956;DHT22;978;48.314;11.562;2022-07-12T09:28:35;22.10;82.10
1956;DHT22;978;48.314;11.562;2022-07-12T09:31:02;22.10;82.00
1956;DHT22;978;48.314;11.562;2022-07-12T09:33:28;22.20;82.00
1956;DHT22;978;48.314;11.562;2022-07-12T09:36:14;22.10;81.90
1956;DHT22;978;48.314;11.562;2022-07-12T09:38:49;22.20;81.90
1956;DHT22;978;48.314;11.562;2022-07-12T09:41:19;22.20;81.80
1956;DHT22;978;48.314;11.562;2022-07-12T09:43:46;22.20;81.80
1956;DHT22;978;48.314;11.562;2022-07-12T09:46:14;22.20;81.70
1956;DHT22;978;48.314;11.562;2022-07-12T09:48:42;22.10;81.60
1956;DHT22;978;48.314;11.562;2022-07-12T09:51:14;22.10;81.60
1956;DHT22;978;48.314;11.562;2022-07-12T09:53:45;22.10;81.50
1956;DHT22;978;48.314;11.562;2022-07-12T09:56:14;22.20;81.60
1956;DHT22;978;48.314;11.562;2022-07-12T09:58:47;22.20;81.40
1956;DHT22;978;48.314;11.562;2022-07-12T10:01:15;22.10;81.40
1956;DHT22;978;48.314;11.562;2022-07-12T10:03:44;22.10;81.30
1956;DHT22;978;48.314;11.562;2022-07-12T10:06:12;22.10;81.30
1956;DHT22;978;48.314;11.562;2022-07-12T10:08:40;22.20;81.90
1956;DHT22;978;48.314;11.562;2022-07-12T10:11:08;22.10;81.70
1956;DHT22;978;48.314;11.562;2022-07-12T10:13:35;22.10;81.10
1956;DHT22;978;48.314;11.562;2022-07-12T10:16:04;22.10;81.10
1956;DHT22;978;48.314;11.562;2022-07-12T10:18:31;22.10;81.10
1956;DHT22;978;48.314;11.562;2022-07-12T10:20:58;22.10;81.00
1956;DHT22;978;48.314;11.562;2022-07-12T10:23:33;22.10;81.00
1956;DHT22;978;48.314;11.562;2022-07-12T10:26:29;22.20;81.00
1956;DHT22;978;48.314;11.562;2022-07-12T10:29:05;22.20;80.90
1956;DHT22;978;48.314;11.562;2022-07-12T10:31:34;22.20;80.90
1956;DHT22;978;48.314;11.562;2022-07-12T10:34:13;22.10;80.80
1956;DHT22;978;48.314;11.562;2022-07-12T10:40:13;22.10;80.80
1956;DHT22;978;48.314;11.562;2022-07-12T10:43:15;22.10;80.80
1956;DHT22;978;48.314;11.562;2022-07-12T10:45:43;22.20;80.80
1956;DHT22;978;48.314;11.562;2022-07-12T10:48:20;22.10;80.60
1956;DHT22;978;48.314;11.562;2022-07-12T10:50:55;22.10;80.60
1956;DHT22;978;48.314;11.562;2022-07-12T10:53:30;22.10;80.50
1956;DHT22;978;48.314;11.562;2022-07-12T10:56:12;22.10;80.50
1956;DHT22;978;48.314;11.562;2022-07-12T10:58:43;22.20;80.60
1956;DHT22;978;48.314;11.562;2022-07-12T11:01:12;22.10;80.50
1956;DHT22;978;48.314;11.562;2022-07-12T11:03:42;22.10;80.50
1956;DHT22;978;48.314;11.562;2022-07-12T11:06:11;22.10;80.40
1956;DHT22;978;48.314;11.562;2022-07-12T11:08:52;22.10;80.40
1956;DHT22;978;48.314;11.562;2022-07-12T11:11:20;22.10;80.30
1956;DHT22;978;48.314;11.562;2022-07-12T11:13:48;22.10;80.40
1956;DHT22;978;48.314;11.562;2022-07-12T11:16:15;22.10;80.30
1956;DHT22;978;48.314;11.562;2022-07-12T11:18:43;22.10;80.30
1956;DHT22;978;48.314;11.562;2022-07-12T11:21:10;22.10;80.30
1956;DHT22;978;48.314;11.562;2022-07-12T11:23:38;22.20;80.50
1956;DHT22;978;48.314;11.562;2022-07-12T11:26:06;22.20;80.50
1956;DHT22;978;48.314;11.562;2022-07-12T11:28:33;22.10;80.50
1956;DHT22;978;48.314;11.562;2022-07-12T11:31:06;22.20;80.50
1956;DHT22;978;48.314;11.562;2022-07-12T11:33:34;22.10;80.50
1956;DHT22;978;48.314;11.562;2022-07-12T11:36:04;22.10;80.50
1956;DHT22;978;48.314;11.562;2022-07-12T11:38:32;22.20;80.70
1956;DHT22;978;48.314;11.562;2022-07-12T11:40:59;22.10;81.20
1956;DHT22;978;48.314;11.562;2022-07-12T11:43:27;22.10;80.70
1956;DHT22;978;48.314;11.562;2022-07-12T11:45:55;22.10;80.70
1956;DHT22;978;48.314;11.562;2022-07-12T11:48:24;22.20;80.80
1956;DHT22;978;48.314;11.562;2022-07-12T11:50:51;22.10;80.80
1956;DHT22;978;48.314;11.562;2022-07-12T11:53:20;22.20;80.80
1956;DHT22;978;48.314;11.562;2022-07-12T11:55:48;22.10;80.80
1956;DHT22;978;48.314;11.562;2022-07-12T11:58:16;22.20;80.90
1956;DHT22;978;48.314;11.562;2022-07-12T12:00:43;22.20;81.00
1956;DHT22;978;48.314;11.562;2022-07-12T12:03:11;22.20;81.00
1956;DHT22;978;48.314;11.562;2022-07-12T12:05:39;22.20;81.00
1956;DHT22;978;48.314;11.562;2022-07-12T12:08:07;22.10;81.00
1956;DHT22;978;48.314;11.562;2022-07-12T12:10:36;22.10;81.00
1956;DHT22;978;48.314;11.562;2022-07-12T12:13:03;22.20;81.10
1956;DHT22;978;48.314;11.562;2022-07-12T12:15:31;22.10;81.00
1956;DHT22;978;48.314;11.562;2022-07-12T12:17:59;22.10;81.00
1956;DHT22;978;48.314;11.562;2022-07-12T12:20:29;22.20;81.10
1956;DHT22;978;48.314;11.562;2022-07-12T12:22:58;22.20;81.10
1956;DHT22;978;48.314;11.562;2022-07-12T12:25:26;22.10;81.00
1956;DHT22;978;48.314;11.562;2022-07-12T12:27:54;22.20;81.00
1956;DHT22;978;48.314;11.562;2022-07-12T12:30:22;22.10;81.00
1956;DHT22;978;48.314;11.562;2022-07-12T12:32:51;22.20;81.00
1956;DHT22;978;48.314;11.562;2022-07-12T12:35:20;22.10;81.00
1956;DHT22;978;48.314;11.562;2022-07-12T12:37:55;22.10;81.00
1956;DHT22;978;48.314;11.562;2022-07-12T12:40:25;22.20;81.00
1956;DHT22;978;48.314;11.562;2022-07-12T12:42:52;22.10;80.90
1956;DHT22;978;48.314;11.562;2022-07-12T12:45:21;22.10;80.90
1956;DHT22;978;48.314;11.562;2022-07-12T12:47:52;22.20;81.00
1956;DHT22;978;48.314;11.562;2022-07-12T12:50:37;22.10;80.90
1956;DHT22;978;48.314;11.562;2022-07-12T12:53:12;22.20;81.00
1956;DHT22;978;48.314;11.562;2022-07-12T12:55:40;22.20;81.00
1956;DHT22;978;48.314;11.562;2022-07-12T12:58:07;22.10;80.90
1956;DHT22;978;48.314;11.562;2022-07-12T13:00:36;22.10;80.90
1956;DHT22;978;48.314;11.562;2022-07-12T13:03:04;22.20;81.00
1956;DHT22;978;48.314;11.562;2022-07-12T13:05:32;22.20;81.00
1956;DHT22;978;48.314;11.562;2022-07-12T13:07:59;22.20;81.00
1956;DHT22;978;48.314;11.562;2022-07-12T13:10:26;22.20;81.00
1956;DHT22;978;48.314;11.562;2022-07-12T13:12:54;22.20;81.00
1956;DHT22;978;48.314;11.562;2022-07-12T13:15:21;22.20;81.00
1956;DHT22;978;48.314;11.562;2022-07-12T13:17:48;22.20;81.00
1956;DHT22;978;48.314;11.562;2022-07-12T13:20:15;22.10;80.90
1956;DHT22;978;48.314;11.562;2022-07-12T13:22:42;22.20;81.00
1956;DHT22;978;48.314;11.562;2022-07-12T13:25:10;22.10;80.90
1956;DHT22;978;48.314;11.562;2022-07-12T13:27:37;22.20;81.00
1956;DHT22;978;48.314;11.562;2022-07-12T13:30:07;22.20;81.00
1956;DHT22;978;48.314;11.562;2022-07-12T13:32:35;22.10;80.90
1956;DHT22;978;48.314;11.562;2022-07-12T13:35:03;22.10;80.90
1956;DHT22;978;48.314;11.562;2022-07-12T13:37:30;22.20;81.00
1956;DHT22;978;48.314;11.562;2022-07-12T13:39:56;22.20;81.00
1956;DHT22;978;48.314;11.562;2022-07-12T13:42:41;22.10;80.90
1956;DHT22;978;48.314;11.562;2022-07-12T13:45:11;22.10;81.00
1956;DHT22;978;48.314;11.562;2022-07-12T13:47:39;22.20;81.00
1956;DHT22;978;48.314;11.562;2022-07-12T13:50:07;22.20;81.00
1956;DHT22;978;48.314;11.562;2022-07-12T13:52:34;22.20;81.10
1956;DHT22;978;48.314;11.562;2022-07-12T13:55:01;22.10;80.90
1956;DHT22;978;48.314;11.562;2022-07-12T13:57:28;22.20;81.00
1956;DHT22;978;48.314;11.562;2022-07-12T13:59:57;22.10;81.00
1956;DHT22;978;48.314;11.562;2022-07-12T14:02:25;22.20;81.00
1956;DHT22;978;48.314;11.562;2022-07-12T14:04:52;22.10;80.90
1956;DHT22;978;48.314;11.562;2022-07-12T14:07:19;22.20;81.00
1956;DHT22;978;48.314;11.562;2022-07-12T14:09:46;22.10;81.00
1956;DHT22;978;48.314;11.562;2022-07-12T14:12:13;22.10;81.00
1956;DHT22;978;48.314;11.562;2022-07-12T14:14:40;22.20;81.10
1956;DHT22;978;48.314;11.562;2022-07-12T14:17:26;22.20;81.10
1956;DHT22;978;48.314;11.562;2022-07-12T14:19:53;22.20;81.10
1956;DHT22;978;48.314;11.562;2022-07-12T14:22:21;22.20;81.20
1956;DHT22;978;48.314;11.562;2022-07-12T14:24:48;22.20;81.20
1956;DHT22;978;48.314;11.562;2022-07-12T14:27:14;22.20;81.20
1956;DHT22;978;48.314;11.562;2022-07-12T14:29:41;22.20;81.30
1956;DHT22;978;48.314;11.562;2022-07-12T14:32:08;22.20;81.30
1956;DHT22;978;48.314;11.562;2022-07-12T14:34:36;22.10;81.30
1956;DHT22;978;48.314;11.562;2022-07-12T14:37:03;22.20;81.90
1956;DHT22;978;48.314;11.562;2022-07-12T14:39:30;22.10;81.30
1956;DHT22;978;48.314;11.562;2022-07-12T14:41:56;22.20;81.40
1956;DHT22;978;48.314;11.562;2022-07-12T14:44:24;22.20;81.40
1956;DHT22;978;48.314;11.562;2022-07-12T14:46:51;22.20;81.40
1956;DHT22;978;48.314;11.562;2022-07-12T14:49:19;22.10;81.40
1956;DHT22;978;48.314;11.562;2022-07-12T14:51:48;22.10;81.40
1956;DHT22;978;48.314;11.562;2022-07-12T14:54:14;22.20;81.50
1956;DHT22;978;48.314;11.562;2022-07-12T14:56:41;22.20;81.50
1956;DHT22;978;48.314;11.562;2022-07-12T14:59:08;22.20;81.60
1956;DHT22;978;48.314;11.562;2022-07-12T15:01:35;22.20;81.60
1956;DHT22;978;48.314;11.562;2022-07-12T15:04:02;22.20;81.60
1956;DHT22;978;48.314;11.562;2022-07-12T15:06:29;22.20;81.60
1956;DHT22;978;48.314;11.562;2022-07-12T15:08:57;22.20;81.90
1956;DHT22;978;48.314;11.562;2022-07-12T15:11:25;22.20;82.20
1956;DHT22;978;48.314;11.562;2022-07-12T15:13:52;22.10;82.10
1956;DHT22;978;48.314;11.562;2022-07-12T15:16:18;22.10;82.20
1956;DHT22;978;48.314;11.562;2022-07-12T15:18:45;22.20;82.20
1956;DHT22;978;48.314;11.562;2022-07-12T15:21:12;22.10;82.10
1956;DHT22;978;48.314;11.562;2022-07-12T15:23:39;22.10;82.20
1956;DHT22;978;48.314;11.562;2022-07-12T15:26:07;22.10;82.20
1956;DHT22;978;48.314;11.562;2022-07-12T15:28:35;22.10;82.20
1956;DHT22;978;48.314;11.562;2022-07-12T15:31:15;22.10;82.20
1956;DHT22;978;48.314;11.562;2022-07-12T15:33:41;22.10;82.20
1956;DHT22;978;48.314;11.562;2022-07-12T15:36:08;22.10;82.20
1956;DHT22;978;48.314;11.562;2022-07-12T15:38:35;22.10;82.20
1956;DHT22;978;48.314;11.562;2022-07-12T15:41:02;22.10;82.20
1956;DHT22;978;48.314;11.562;2022-07-12T15:43:30;22.10;82.20
1956;DHT22;978;48.314;11.562;2022-07-12T15:45:56;22.10;82.20
1956;DHT22;978;48.314;11.562;2022-07-12T15:48:23;22.10;82.20
1956;DHT22;978;48.314;11.562;2022-07-12T15:50:50;22.10;82.30
1956;DHT22;978;48.314;11.562;2022-07-12T15:53:17;22.10;82.30
1956;DHT22;978;48.314;11.562;2022-07-12T15:55:54;22.10;82.30
1956;DHT22;978;48.314;11.562;2022-07-12T15:58:24;22.10;82.30
1956;DHT22;978;48.314;11.562;2022-07-12T16:00:52;22.10;82.30
1956;DHT22;978;48.314;11.562;2022-07-12T16:03:18;22.10;82.20
1956;DHT22;978;48.314;11.562;2022-07-12T16:05:45;22.10;82.30
1956;DHT22;978;48.314;11.562;2022-07-12T16:08:12;22.10;82.20
1956;DHT22;978;48.314;11.562;2022-07-12T16:10:39;22.10;82.30